Time;durP1;ratioP1;P1;durP2;ratioP2;P2;SDS_P1;SDS_P2;PMS_P1;PMS_P2;Temp;Humidity;BMP_temperature;BMP_pressure;BME280_temperature;BME280_humidity;BME280_pressure;Samples;Min_cycle;Max_cycle;Signal;HPM_P1;HPM_P2
2022/03/04 00:01:09;;;;;;;;;;;;;;;2.52;100.00;101826.81;5211975;28;20389;-62
2022/03/04 00:03:39;;;;;;;;;;;;;;;2.48;100.00;101837.00;5211628;28;19939;-62
2022/03/04 00:06:10;;;;;;;;;;;;;;;2.38;100.00;101841.75;5211657;28;19912;-62
2022/03/04 00:08:40;;;;;;;;;;;;;;;2.35;100.00;101829.59;5212063;28;19913;-62
2022/03/04 00:11:11;;;;;;;;;;;;;;;2.36;100.00;101836.59;5211873;28;19998;-63
2022/03/04 00:13:41;;;;;;;;;;;;;;;2.39;100.00;101832.75;5211062;28;19924;-63
2022/03/04 00:16:11;;;;;;;;;;;;;;;2.43;100.00;101835.88;5211653;28;19943;-62
2022/03/04 00:18:42;;;;;;;;;;;;;;;2.43;100.00;101831.38;5211483;28;20257;-62
2022/03/04 00:21:12;;;;;;;;;;;;;;;2.40;100.00;101834.41;5211755;28;20007;-62
2022/03/04 00:23:42;;;;;;;;;;;;;;;2.37;100.00;101834.75;5211187;28;19920;-63
2022/03/04 00:26:13;;;;;;;;;;;;;;;2.34;100.00;101843.09;5211639;28;20334;-62
2022/03/04 00:28:44;;;;;;;;;;;;;;;2.34;100.00;101843.94;5229422;28;19952;-62
2022/03/04 00:31:14;;;;;;;;;;;;;;;2.33;100.00;101844.94;5211250;28;20304;-63
2022/03/04 00:33:44;;;;;;;;;;;;;;;2.30;100.00;101855.16;5211123;28;20479;-63
2022/03/04 00:36:15;;;;;;;;;;;;;;;2.25;100.00;101841.53;5211227;28;19913;-62
2022/03/04 00:38:45;;;;;;;;;;;;;;;2.24;100.00;101842.53;5229003;28;19917;-63
2022/03/04 00:41:19;;;;;;;;;;;;;;;2.17;100.00;101852.22;5211213;28;20027;-62
2022/03/04 00:43:50;;;;;;;;;;;;;;;2.12;100.00;101842.09;5228314;28;19986;-62
2022/03/04 00:46:21;;;;;;;;;;;;;;;2.12;100.00;101851.94;5210969;28;20332;-62
2022/03/04 00:48:51;;;;;;;;;;;;;;;2.08;100.00;101855.94;5211142;28;19962;-63
2022/03/04 00:51:22;;;;;;;;;;;;;;;2.06;100.00;101849.97;5211092;28;19969;-63
2022/03/04 00:53:52;;;;;;;;;;;;;;;2.06;100.00;101849.97;5210704;28;19913;-63
2022/03/04 00:56:22;;;;;;;;;;;;;;;2.01;100.00;101859.34;5210792;28;20007;-63
2022/03/04 00:58:52;;;;;;;;;;;;;;;1.95;100.00;101857.38;5210614;28;19917;-63
2022/03/04 01:01:23;;;;;;;;;;;;;;;1.93;100.00;101859.38;5228613;28;20304;-63
2022/03/04 01:03:53;;;;;;;;;;;;;;;1.90;100.00;101854.38;5210313;28;19919;-63
2022/03/04 01:06:24;;;;;;;;;;;;;;;1.86;100.00;101874.38;5210750;28;19912;-63
2022/03/04 01:08:54;;;;;;;;;;;;;;;1.86;100.00;101868.22;5210913;28;20272;-63
2022/03/04 01:11:24;;;;;;;;;;;;;;;1.83;100.00;101864.06;5210719;28;20019;-63
2022/03/04 01:13:54;;;;;;;;;;;;;;;1.77;100.00;101864.75;5210103;28;19912;-63
2022/03/04 01:16:25;;;;;;;;;;;;;;;1.77;100.00;101859.44;5211336;28;19919;-63
2022/03/04 01:18:55;;;;;;;;;;;;;;;1.68;100.00;101855.16;5210430;28;19917;-62
2022/03/04 01:21:25;;;;;;;;;;;;;;;1.66;100.00;101859.84;5210738;28;19944;-63
2022/03/04 01:23:56;;;;;;;;;;;;;;;1.67;100.00;101858.84;5228521;28;19982;-62
2022/03/04 01:26:26;;;;;;;;;;;;;;;1.65;100.00;101860.84;5210693;28;20300;-62
2022/03/04 01:28:56;;;;;;;;;;;;;;;1.57;100.00;101864.34;5210588;28;19967;-62
2022/03/04 01:31:27;;;;;;;;;;;;;;;1.57;100.00;101855.53;5210159;28;19913;-63
2022/03/04 01:33:57;;;;;;;;;;;;;;;1.57;100.00;101859.03;5209683;28;19913;-63
2022/03/04 01:36:32;;;;;;;;;;;;;;;1.53;100.00;101859.53;5209936;28;20296;-63
2022/03/04 01:39:03;;;;;;;;;;;;;;;1.47;100.00;101862.88;5209825;28;19920;-62
2022/03/04 01:41:33;;;;;;;;;;;;;;;1.47;100.00;101865.53;5209827;28;19913;-63
2022/03/04 01:44:03;;;;;;;;;;;;;;;1.47;100.00;101861.06;5209754;28;19955;-62
2022/03/04 01:46:34;;;;;;;;;;;;;;;1.46;100.00;101851.41;5227708;28;20159;-63
2022/03/04 01:49:04;;;;;;;;;;;;;;;1.45;100.00;101844.44;5209847;28;20007;-62
2022/03/04 01:51:34;;;;;;;;;;;;;;;1.40;100.00;101843.31;5209783;28;19956;-62
2022/03/04 01:54:05;;;;;;;;;;;;;;;1.40;100.00;101848.63;5209068;28;19912;-62
2022/03/04 01:56:35;;;;;;;;;;;;;;;1.38;100.00;101847.97;5208904;28;20292;-63
2022/03/04 01:59:06;;;;;;;;;;;;;;;1.33;100.00;101851.13;5210253;28;19916;-63
2022/03/04 02:01:36;;;;;;;;;;;;;;;1.32;100.00;101844.16;5209716;28;20404;-63
2022/03/04 02:04:06;;;;;;;;;;;;;;;1.33;100.00;101849.31;5209186;28;20316;-63
2022/03/04 02:06:37;;;;;;;;;;;;;;;1.34;100.00;101847.47;5209452;28;19912;-63
2022/03/04 02:09:07;;;;;;;;;;;;;;;1.28;100.00;101854.31;5209538;28;19919;-63
2022/03/04 02:11:43;;;;;;;;;;;;;;;1.25;100.00;101849.31;5209378;28;20398;-63
2022/03/04 02:14:13;;;;;;;;;;;;;;;1.20;100.00;101837.53;5209300;28;19958;-63
2022/03/04 02:16:45;;;;;;;;;;;;;;;1.16;100.00;101850.34;5209367;28;19994;-63
2022/03/04 02:19:16;;;;;;;;;;;;;;;1.12;100.00;101842.91;5209110;28;19952;-63
2022/03/04 02:21:51;;;;;;;;;;;;;;;1.06;100.00;101844.41;5209376;28;20005;-63
2022/03/04 02:24:22;;;;;;;;;;;;;;;1.04;100.00;101840.25;5209003;28;19912;-62
2022/03/04 02:26:54;;;;;;;;;;;;;;;1.01;100.00;101846.72;5209211;28;19923;-63
2022/03/04 02:29:25;;;;;;;;;;;;;;;1.00;100.00;101847.72;5209019;28;19920;-63
2022/03/04 02:31:55;;;;;;;;;;;;;;;0.98;100.00;101831.09;5209093;28;19912;-63
2022/03/04 02:34:25;;;;;;;;;;;;;;;0.95;100.00;101839.41;5208818;28;19957;-63
2022/03/04 02:36:56;;;;;;;;;;;;;;;0.97;100.00;101840.06;5209129;28;19995;-64
2022/03/04 02:39:26;;;;;;;;;;;;;;;0.97;100.00;101834.75;5209006;28;19917;-63
2022/03/04 02:41:57;;;;;;;;;;;;;;;0.94;100.00;101837.75;5208935;28;19951;-63
2022/03/04 02:44:27;;;;;;;;;;;;;;;0.95;100.00;101842.91;5208552;28;19912;-63
2022/03/04 02:46:57;;;;;;;;;;;;;;;0.93;100.00;101839.59;5208842;28;19932;-63
2022/03/04 02:49:28;;;;;;;;;;;;;;;0.94;100.00;101838.59;5208949;28;19913;-63
2022/03/04 02:51:58;;;;;;;;;;;;;;;0.96;100.00;101830.44;5208608;28;19917;-63
2022/03/04 02:54:28;;;;;;;;;;;;;;;0.98;100.00;101825.78;5208754;28;19918;-63
2022/03/04 02:56:59;;;;;;;;;;;;;;;1.00;100.00;101829.09;5208839;28;19912;-63
2022/03/04 02:59:29;;;;;;;;;;;;;;;1.00;100.00;101829.94;5208463;28;19917;-63
2022/03/04 03:01:59;;;;;;;;;;;;;;;1.01;100.00;101825.44;5208621;28;19920;-63
2022/03/04 03:04:30;;;;;;;;;;;;;;;1.00;100.00;101826.44;5208223;28;19920;-63
2022/03/04 03:07:00;;;;;;;;;;;;;;;0.95;100.00;101839.41;5208409;28;20384;-63
2022/03/04 03:09:30;;;;;;;;;;;;;;;0.90;100.00;101833.78;5208446;28;19913;-63
2022/03/04 03:12:01;;;;;;;;;;;;;;;0.88;100.00;101833.09;5208541;28;20334;-63
2022/03/04 03:14:31;;;;;;;;;;;;;;;0.90;100.00;101836.44;5208282;28;19923;-63
2022/03/04 03:17:01;;;;;;;;;;;;;;;0.88;100.00;101841.09;5208338;28;19971;-63
2022/03/04 03:19:32;;;;;;;;;;;;;;;0.88;100.00;101835.75;5208378;28;19920;-63
2022/03/04 03:22:02;;;;;;;;;;;;;;;0.83;100.00;101840.78;5208498;28;20333;-64
2022/03/04 03:24:32;;;;;;;;;;;;;;;0.83;100.00;101840.78;5208197;28;20482;-63
2022/03/04 03:27:03;;;;;;;;;;;;;;;0.78;100.00;101838.63;5208255;28;20385;-63
2022/03/04 03:29:33;;;;;;;;;;;;;;;0.72;100.00;101836.63;5208144;28;19946;-63
2022/03/04 03:32:03;;;;;;;;;;;;;;;0.70;100.00;101843.09;5208463;28;19913;-63
2022/03/04 03:34:34;;;;;;;;;;;;;;;0.65;100.00;101836.47;5225937;28;19913;-63
2022/03/04 03:37:05;;;;;;;;;;;;;;;0.64;100.00;101845.44;5208360;28;19920;-63
2022/03/04 03:39:37;;;;;;;;;;;;;;;0.63;100.00;101849.09;5208179;28;19916;-63
2022/03/04 03:42:07;;;;;;;;;;;;;;;0.60;100.00;101844.09;5208003;28;19913;-63
2022/03/04 03:44:38;;;;;;;;;;;;;;;0.59;100.00;101846.91;5225942;28;19919;-63
2022/03/04 03:47:09;;;;;;;;;;;;;;;0.57;100.00;101844.47;5226057;28;19921;-63
2022/03/04 03:49:39;;;;;;;;;;;;;;;0.56;100.00;101844.63;5208254;28;19924;-63
2022/03/04 03:52:10;;;;;;;;;;;;;;;0.49;100.00;101833.81;5208101;28;19913;-62
2022/03/04 03:54:40;;;;;;;;;;;;;;;0.48;100.00;101844.63;5207876;28;20389;-63
2022/03/04 03:57:10;;;;;;;;;;;;;;;0.44;100.00;101845.94;5208104;28;19917;-63
2022/03/04 03:59:41;;;;;;;;;;;;;;;0.36;100.00;101840.63;5208085;28;20434;-63
2022/03/04 04:02:11;;;;;;;;;;;;;;;0.31;100.00;101849.91;5225968;28;19917;-63
2022/03/04 04:04:41;;;;;;;;;;;;;;;0.30;100.00;101852.72;5207631;28;19917;-63
2022/03/04 04:07:12;;;;;;;;;;;;;;;0.27;100.00;101855.72;5207956;28;19913;-62
2022/03/04 04:09:42;;;;;;;;;;;;;;;0.27;100.00;101848.59;5207882;28;20368;-63
2022/03/04 04:12:13;;;;;;;;;;;;;;;0.25;100.00;101855.06;5207852;28;19920;-63
2022/03/04 04:14:43;;;;;;;;;;;;;;;0.25;100.00;101860.38;5207520;28;19912;-63
2022/03/04 04:17:13;;;;;;;;;;;;;;;0.21;100.00;101859.88;5208119;28;19919;-63
2022/03/04 04:19:44;;;;;;;;;;;;;;;0.19;100.00;101863.69;5208832;28;20274;-63
2022/03/04 04:22:14;;;;;;;;;;;;;;;0.18;100.00;101856.72;5211702;28;19974;-63
2022/03/04 04:24:44;;;;;;;;;;;;;;;0.16;100.00;101871.97;5211066;28;19913;-63
2022/03/04 04:27:15;;;;;;;;;;;;;;;0.16;100.00;101871.97;5211353;28;19982;-63
2022/03/04 04:29:45;;;;;;;;;;;;;;;0.16;100.00;101866.66;5211408;28;19919;-63
2022/03/04 04:32:15;;;;;;;;;;;;;;;0.09;100.00;101866.47;5211379;28;20308;-63
2022/03/04 04:34:46;;;;;;;;;;;;;;;0.04;100.00;101874.09;5211183;28;19913;-63
2022/03/04 04:37:16;;;;;;;;;;;;;;;0.04;100.00;101870.59;5211174;28;20301;-63
2022/03/04 04:39:47;;;;;;;;;;;;;;;0.04;100.00;101859.97;5228894;28;19917;-63
2022/03/04 04:42:17;;;;;;;;;;;;;;;-0.03;100.00;101873.09;5211158;28;20412;-63
2022/03/04 04:44:48;;;;;;;;;;;;;;;-0.09;100.00;101860.47;5211126;28;19913;-63
2022/03/04 04:47:18;;;;;;;;;;;;;;;-0.12;100.00;101866.94;5210859;28;19917;-63
2022/03/04 04:49:49;;;;;;;;;;;;;;;-0.14;100.00;101865.44;5210989;28;19913;-63
2022/03/04 04:52:19;;;;;;;;;;;;;;;-0.16;100.00;101872.72;5211000;28;19967;-65
2022/03/04 04:54:50;;;;;;;;;;;;;;;-0.18;100.00;101866.72;5210782;28;19920;-63
2022/03/04 04:57:20;;;;;;;;;;;;;;;-0.21;100.00;101870.53;5228874;28;20457;-63
2022/03/04 04:59:50;;;;;;;;;;;;;;;-0.22;100.00;101868.88;5210734;28;19917;-65
2022/03/04 05:02:21;;;;;;;;;;;;;;;-0.26;100.00;101872.84;5210777;28;19954;-63
2022/03/04 05:04:51;;;;;;;;;;;;;;;-0.27;100.00;101884.44;5210513;28;19913;-63
2022/03/04 05:07:22;;;;;;;;;;;;;;;-0.27;100.00;101886.25;5228693;28;19917;-64
2022/03/04 05:09:52;;;;;;;;;;;;;;;-0.30;100.00;101890.09;5210489;28;20392;-64
2022/03/04 05:12:23;;;;;;;;;;;;;;;-0.33;100.00;101885.09;5210559;28;19913;-64
2022/03/04 05:14:53;;;;;;;;;;;;;;;-0.36;100.00;101890.72;5210241;28;19913;-64
2022/03/04 05:17:24;;;;;;;;;;;;;;;-0.41;100.00;101880.59;5210517;28;20292;-64
2022/03/04 05:19:54;;;;;;;;;;;;;;;-0.40;100.00;101882.25;5210216;28;19924;-64
2022/03/04 05:22:24;;;;;;;;;;;;;;;-0.34;100.00;101891.41;5210967;28;19919;-64
2022/03/04 05:24:55;;;;;;;;;;;;;;;-0.32;100.00;101888.59;5211137;28;19913;-64
2022/03/04 05:27:25;;;;;;;;;;;;;;;-0.38;100.00;101890.88;5212118;28;19913;-64
2022/03/04 05:29:55;;;;;;;;;;;;;;;-0.43;100.00;101897.66;5210197;28;20014;-64
2022/03/04 05:32:26;;;;;;;;;;;;;;;-0.46;100.00;101903.28;5210170;28;19919;-64
2022/03/04 05:34:57;;;;;;;;;;;;;;;-0.45;100.00;101904.94;5210107;28;19917;-64
2022/03/04 05:37:27;;;;;;;;;;;;;;;-0.52;100.00;101910.03;5210065;28;20312;-64
2022/03/04 05:39:58;;;;;;;;;;;;;;;-0.63;100.00;101905.03;5210137;28;19920;-64
2022/03/04 05:42:28;;;;;;;;;;;;;;;-0.64;100.00;101907.84;5209979;28;20342;-65
2022/03/04 05:44:59;;;;;;;;;;;;;;;-0.68;100.00;101912.63;5209626;28;19916;-63
2022/03/04 05:47:29;;;;;;;;;;;;;;;-0.75;100.00;101917.72;5215936;22;19932;-59
2022/03/04 05:49:59;;;;;;;;;;;;;;;-0.76;100.00;101916.03;5205623;28;19923;-63
2022/03/04 05:52:29;;;;;;;;;;;;;;;-0.78;100.00;101915.38;5210454;28;20533;-60
2022/03/04 05:55:00;;;;;;;;;;;;;;;-0.77;100.00;101910.88;5209611;28;19920;-60
2022/03/04 05:57:30;;;;;;;;;;;;;;;-0.80;100.00;101917.34;5209733;28;19913;-60
2022/03/04 06:00:00;;;;;;;;;;;;;;;-0.82;100.00;101911.34;5209554;28;19917;-60
2022/03/04 06:02:31;;;;;;;;;;;;;;;-0.84;100.00;101923.09;5209475;28;19924;-60
2022/03/04 06:05:01;;;;;;;;;;;;;;;-0.87;100.00;101921.63;5209294;28;19979;-60
2022/03/04 06:07:33;;;;;;;;;;;;;;;-0.92;100.00;101923.91;5209802;28;19916;-59
2022/03/04 06:10:04;;;;;;;;;;;;;;;-0.96;100.00;101916.41;5209621;28;19948;-60
2022/03/04 06:12:34;;;;;;;;;;;;;;;-0.99;100.00;101925.50;5209187;28;20002;-59
2022/03/04 06:15:05;;;;;;;;;;;;;;;-0.99;100.00;101925.50;5210493;28;19935;-60
2022/03/04 06:17:36;;;;;;;;;;;;;;;-0.97;100.00;101926.19;5211504;28;20376;-59
2022/03/04 06:20:07;;;;;;;;;;;;;;;-0.97;100.00;101923.53;5211640;28;19923;-59
2022/03/04 06:22:37;;;;;;;;;;;;;;;-0.97;100.00;101928.00;5210109;28;19967;-59
2022/03/04 06:25:09;;;;;;;;;;;;;;;-0.96;100.00;101935.78;5208735;28;19974;-59
2022/03/04 06:27:59;;;;;;;;;;;;;;;-0.99;100.00;101930.81;5209275;28;19920;-59
2022/03/04 06:30:31;;;;;;;;;;;;;;;-0.98;100.00;101934.28;5209064;28;19949;-59
2022/03/04 06:35:50;;;;;;;;;;;;;;;-1.06;100.00;101937.69;5226864;28;19917;-59
2022/03/04 06:38:21;;;;;;;;;;;;;;;-1.07;100.00;101934.22;5208773;28;19913;-59
2022/03/04 06:40:51;;;;;;;;;;;;;;;-1.04;100.00;101941.03;5208489;28;20376;-59
2022/03/04 06:43:22;;;;;;;;;;;;;;;-1.03;100.00;101935.56;5208096;28;19951;-59
2022/03/04 06:45:52;;;;;;;;;;;;;;;-1.05;100.00;101952.63;5208280;28;19942;-59
2022/03/04 06:48:22;;;;;;;;;;;;;;;-1.01;100.00;101935.41;5208173;28;20296;-60
2022/03/04 06:50:53;;;;;;;;;;;;;;;-1.00;100.00;101944.19;5208375;28;19920;-60
2022/03/04 06:53:24;;;;;;;;;;;;;;;-0.97;100.00;101943.91;5208110;28;19948;-59
2022/03/04 06:55:55;;;;;;;;;;;;;;;-0.95;100.00;101955.19;5208563;28;20380;-60
2022/03/04 06:58:25;;;;;;;;;;;;;;;-0.91;100.00;101949.44;5208378;28;19913;-59
2022/03/04 07:00:56;;;;;;;;;;;;;;;-0.87;100.00;101953.44;5208287;28;19917;-60
2022/03/04 07:03:26;;;;;;;;;;;;;;;-0.82;100.00;101964.38;5208310;28;20375;-59
2022/03/04 07:05:57;;;;;;;;;;;;;;;-0.78;100.00;101964.91;5208289;28;19913;-59
2022/03/04 07:08:27;;;;;;;;;;;;;;;-0.73;100.00;101970.59;5208029;28;19958;-60
2022/03/04 07:10:57;;;;;;;;;;;;;;;-0.72;100.00;101970.44;5207943;28;19913;-60
2022/03/04 07:13:27;;;;;;;;;;;;;;;-0.65;100.00;101977.78;5208088;28;20293;-59
2022/03/04 07:15:58;;;;;;;;;;;;;;;-0.62;100.00;101977.47;5226073;28;19913;-59
2022/03/04 07:18:29;;;;;;;;;;;;;;;-0.56;100.00;101976.84;5208231;28;19935;-59
2022/03/04 07:21:00;;;;;;;;;;;;;;;-0.51;100.00;101985.16;5208013;28;19917;-60
2022/03/04 07:23:31;;;;;;;;;;;;;;;-0.46;100.00;101983.72;5207782;28;20510;-59
2022/03/04 07:26:01;;;;;;;;;;;;;;;-0.35;100.00;101979.97;5208071;28;19912;-60
2022/03/04 07:28:31;;;;;;;;;;;;;;;-0.29;100.00;101982.00;5208122;28;19913;-60
2022/03/04 07:31:02;;;;;;;;;;;;;;;-0.22;100.00;101990.97;5207943;28;19924;-60
2022/03/04 07:33:33;;;;;;;;;;;;;;;-0.18;100.00;101980.88;5207884;28;19963;-59
2022/03/04 07:36:04;;;;;;;;;;;;;;;-0.15;100.00;101986.72;5208102;28;20296;-60
2022/03/04 07:38:34;;;;;;;;;;;;;;;-0.08;100.00;101978.94;5208277;28;19919;-59
2022/03/04 07:41:05;;;;;;;;;;;;;;;-0.02;100.00;101981.81;5208186;28;19912;-60
2022/03/04 07:43:35;;;;;;;;;;;;;;;0.05;100.00;101986.44;5207931;28;19913;-59
2022/03/04 07:46:05;;;;;;;;;;;;;;;0.15;100.00;101985.34;5208212;28;20008;-59
2022/03/04 07:48:36;;;;;;;;;;;;;;;0.25;100.00;101986.06;5208122;28;19913;-59
2022/03/04 07:51:06;;;;;;;;;;;;;;;0.34;100.00;101995.69;5208106;28;19920;-60
2022/03/04 07:53:36;;;;;;;;;;;;;;;0.46;100.00;101998.91;5207995;28;19917;-60
2022/03/04 07:56:07;;;;;;;;;;;;;;;0.55;100.00;102005.09;5211579;28;20399;-59
2022/03/04 07:58:37;;;;;;;;;;;;;;;0.65;100.00;102008.41;5211960;28;20004;-60
2022/03/04 08:01:08;;;;;;;;;;;;;;;0.74;100.00;102004.78;5230169;28;19913;-59
2022/03/04 08:03:39;;;;;;;;;;;;;;;0.84;100.00;102004.63;5211853;28;19920;-60
2022/03/04 08:06:09;;;;;;;;;;;;;;;0.88;100.00;102008.59;5212342;28;19916;-60
2022/03/04 08:08:40;;;;;;;;;;;;;;;0.91;100.00;102005.63;5212220;28;19935;-59
2022/03/04 08:11:10;;;;;;;;;;;;;;;0.98;100.00;102006.63;5229814;28;19913;-60
2022/03/04 08:13:40;;;;;;;;;;;;;;;1.07;100.00;102002.16;5211735;28;20067;-60
2022/03/04 08:16:11;;;;;;;;;;;;;;;1.12;100.00;102008.66;5211711;28;19986;-60
2022/03/04 08:18:41;;;;;;;;;;;;;;;1.17;100.00;102000.97;5211867;28;19971;-60
2022/03/04 08:21:12;;;;;;;;;;;;;;;1.28;100.00;102016.63;5212421;28;20285;-60
2022/03/04 08:23:42;;;;;;;;;;;;;;;1.37;100.00;102013.97;5212129;28;20373;-60
2022/03/04 08:26:12;;;;;;;;;;;;;;;1.51;100.00;102014.09;5212993;28;20031;-60
2022/03/04 08:28:42;;;;;;;;;;;;;;;1.61;100.00;102013.94;5212843;28;19957;-60
2022/03/04 08:31:13;;;;;;;;;;;;;;;1.66;100.00;102016.94;5212563;28;20273;-60
2022/03/04 08:33:44;;;;;;;;;;;;;;;1.73;100.00;102033.91;5212133;28;19920;-60
2022/03/04 08:36:17;;;;;;;;;;;;;;;1.80;100.00;102021.53;5212403;28;20399;-60
2022/03/04 08:38:48;;;;;;;;;;;;;;;1.90;100.00;102024.03;5212375;28;19920;-60
2022/03/04 08:41:18;;;;;;;;;;;;;;;2.01;100.00;102029.81;5212412;28;20292;-60
2022/03/04 08:43:50;;;;;;;;;;;;;;;2.15;100.00;102025.59;5211660;28;19913;-60
2022/03/04 08:46:21;;;;;;;;;;;;;;;2.26;100.00;102027.06;5211962;28;20365;-60
2022/03/04 08:48:51;;;;;;;;;;;;;;;2.41;100.00;102024.50;5212231;28;19913;-60
2022/03/04 08:51:25;;;;;;;;;;;;;;;2.47;100.00;102032.63;5211927;28;19932;-60
2022/03/04 08:53:55;;;;;;;;;;;;;;;2.59;100.00;102020.59;5211843;28;19905;-60
2022/03/04 08:56:25;;;;;;;;;;;;;;;2.70;100.00;102033.50;5212089;28;19939;-60
2022/03/04 08:58:55;;;;;;;;;;;;;;;2.86;100.00;102029.09;5211726;28;19913;-60
2022/03/04 09:01:26;;;;;;;;;;;;;;;2.95;100.00;102026.19;5211393;28;19914;-60
2022/03/04 09:03:56;;;;;;;;;;;;;;;3.04;100.00;102032.28;5211399;28;19919;-60
2022/03/04 09:06:26;;;;;;;;;;;;;;;3.11;100.00;102030.59;5228822;28;19912;-60
2022/03/04 09:08:57;;;;;;;;;;;;;;;3.27;100.00;102025.09;5211780;28;19912;-60
2022/03/04 09:11:27;;;;;;;;;;;;;;;3.46;100.00;102025.63;5211350;28;20365;-60
2022/03/04 09:13:57;;;;;;;;;;;;;;;3.60;100.00;102022.97;5211029;28;19919;-60
2022/03/04 09:16:31;;;;;;;;;;;;;;;3.72;100.00;102023.38;5210781;28;20395;-60
2022/03/04 09:19:02;;;;;;;;;;;;;;;3.86;100.00;102017.19;5210150;28;19917;-61
2022/03/04 09:21:33;;;;;;;;;;;;;;;4.03;100.00;102020.53;5210448;28;19916;-60
2022/03/04 09:24:04;;;;;;;;;;;;;;;4.21;100.00;102014.81;5210315;28;19913;-60
2022/03/04 09:26:34;;;;;;;;;;;;;;;4.41;100.00;102031.91;5210444;28;19936;-60
2022/03/04 09:29:05;;;;;;;;;;;;;;;4.62;100.00;102026.63;5210703;28;19916;-60
2022/03/04 09:31:35;;;;;;;;;;;;;;;4.87;100.00;102021.78;5210723;28;19935;-60
2022/03/04 09:34:07;;;;;;;;;;;;;;;5.09;100.00;102018.06;5210382;28;19958;-60
2022/03/04 09:36:37;;;;;;;;;;;;;;;5.33;100.00;102018.69;5211235;28;19975;-61
2022/03/04 09:39:08;;;;;;;;;;;;;;;5.53;100.00;102013.50;5211795;28;19917;-61
2022/03/04 09:41:40;;;;;;;;;;;;;;;5.77;100.00;102010.41;5212290;28;19917;-61
2022/03/04 09:44:11;;;;;;;;;;;;;;;6.06;100.00;102017.41;5212097;28;19913;-61
2022/03/04 09:46:42;;;;;;;;;;;;;;;6.26;100.00;102009.44;5211699;28;20391;-62
2022/03/04 09:49:14;;;;;;;;;;;;;;;6.42;98.08;102015.28;5211863;28;19916;-60
2022/03/04 09:51:45;;;;;;;;;;;;;;;6.62;94.11;102020.75;5211352;28;19913;-60
2022/03/04 09:54:16;;;;;;;;;;;;;;;6.81;92.19;102015.63;5210954;28;19991;-60
2022/03/04 09:56:46;;;;;;;;;;;;;;;6.93;91.61;102020.19;5211549;28;19912;-60
2022/03/04 09:59:16;;;;;;;;;;;;;;;7.06;91.73;102014.84;5211920;28;19917;-60
2022/03/04 10:01:47;;;;;;;;;;;;;;;7.12;87.47;102021.28;5211930;28;19959;-59
2022/03/04 10:04:17;;;;;;;;;;;;;;;7.23;87.88;102015.28;5211508;28;20337;-60
2022/03/04 10:06:51;;;;;;;;;;;;;;;7.27;83.88;102019.22;5212367;28;20012;-61
2022/03/04 10:09:33;;;;;;;;;;;;;;;7.42;85.46;102019.84;5212039;28;19984;-60
2022/03/04 10:12:04;;;;;;;;;;;;;;;7.55;82.43;102016.31;5229251;28;19912;-60
2022/03/04 10:14:54;;;;;;;;;;;;;;;7.61;81.52;102003.91;5210930;28;19912;-61
2022/03/04 10:17:25;;;;;;;;;;;;;;;7.69;81.19;102011.75;5210480;28;20420;-60
2022/03/04 10:19:56;;;;;;;;;;;;;;;7.80;82.31;102021.88;5210776;28;19976;-61
2022/03/04 10:22:33;;;;;;;;;;;;;;;7.98;82.70;102011.31;5210895;28;19920;-60
2022/03/04 10:25:16;;;;;;;;;;;;;;;8.14;80.23;102018.06;5210344;28;19916;-61
2022/03/04 10:27:47;;;;;;;;;;;;;;;8.26;79.96;102020.94;5228426;28;19912;-61
2022/03/04 10:30:28;;;;;;;;;;;;;;;8.37;80.90;102017.63;5211004;28;20379;-61
2022/03/04 10:33:08;;;;;;;;;;;;;;;8.50;81.19;102022.94;5210888;28;20436;-61
2022/03/04 10:35:39;;;;;;;;;;;;;;;8.55;76.75;102012.38;5211161;28;19913;-60
2022/03/04 10:38:23;;;;;;;;;;;;;;;8.65;78.56;102010.06;5229166;28;19913;-61
2022/03/04 10:40:53;;;;;;;;;;;;;;;8.83;77.37;102017.41;5210787;28;20019;-60
2022/03/04 10:43:29;;;;;;;;;;;;;;;8.97;77.72;102010.06;5210077;28;19995;-59
2022/03/04 10:46:01;;;;;;;;;;;;;;;9.07;77.57;102007.72;5210288;28;19920;-62
2022/03/04 10:48:31;;;;;;;;;;;;;;;9.05;73.76;102007.09;5210217;28;19912;-61
2022/03/04 10:51:05;;;;;;;;;;;;;;;9.03;73.39;102009.19;5210304;28;19932;-61
2022/03/04 10:53:35;;;;;;;;;;;;;;;9.02;74.71;102011.06;5209631;28;19913;-61
2022/03/04 10:56:07;;;;;;;;;;;;;;;9.13;73.16;102007.66;5210126;28;19919;-61
2022/03/04 10:58:38;;;;;;;;;;;;;;;9.14;71.25;102005.81;5228213;28;19913;-62
2022/03/04 11:01:11;;;;;;;;;;;;;;;9.33;72.27;102004.00;5210259;28;19924;-63
2022/03/04 11:03:41;;;;;;;;;;;;;;;9.45;71.27;102003.06;5209384;28;19912;-62
2022/03/04 11:06:15;;;;;;;;;;;;;;;9.47;69.47;102006.38;5210288;28;19912;-62
2022/03/04 11:08:46;;;;;;;;;;;;;;;9.55;71.45;102001.72;5209967;28;20205;-61
2022/03/04 11:11:16;;;;;;;;;;;;;;;9.66;71.56;102003.72;5209761;28;19920;-60
2022/03/04 11:13:46;;;;;;;;;;;;;;;9.74;69.38;102000.72;5227079;28;19912;-61
2022/03/04 11:16:17;;;;;;;;;;;;;;;9.69;68.34;101992.47;5209808;28;19913;-61
2022/03/04 11:18:47;;;;;;;;;;;;;;;9.66;68.14;101991.03;5209628;28;20027;-61
2022/03/04 11:21:17;;;;;;;;;;;;;;;9.81;69.47;101996.09;5210499;28;19919;-61
2022/03/04 11:23:48;;;;;;;;;;;;;;;9.90;68.64;101989.34;5227258;28;20292;-62
2022/03/04 11:26:20;;;;;;;;;;;;;;;10.02;68.36;101992.97;5209581;28;19967;-62
2022/03/04 11:28:51;;;;;;;;;;;;;;;10.07;67.80;101990.41;5210848;28;20273;-61
2022/03/04 11:31:23;;;;;;;;;;;;;;;10.01;64.96;101990.50;5231244;28;20022;-63
2022/03/04 11:33:54;;;;;;;;;;;;;;;10.02;66.02;101994.84;5213000;28;19952;-63
2022/03/04 11:36:28;;;;;;;;;;;;;;;10.11;65.29;101988.06;5213902;28;19913;-62
2022/03/04 11:39:05;;;;;;;;;;;;;;;10.25;65.30;101989.59;5213579;28;20037;-61
2022/03/04 11:41:37;;;;;;;;;;;;;;;10.44;64.36;101979.59;5213365;28;19913;-62
2022/03/04 11:44:10;;;;;;;;;;;;;;;10.47;64.07;101976.44;5212685;28;19948;-61
2022/03/04 11:46:50;;;;;;;;;;;;;;;10.55;63.24;101976.13;5226471;22;19929;-63
2022/03/04 11:49:41;;;;;;;;;;;;;;;10.43;61.52;101977.94;5211964;28;20304;-64
2022/03/04 11:52:19;;;;;;;;;;;;;;;10.33;62.57;101977.69;5212000;28;19923;-64
2022/03/04 11:54:50;;;;;;;;;;;;;;;10.34;63.18;101972.06;5211906;28;20003;-64
2022/03/04 11:57:20;;;;;;;;;;;;;;;10.47;64.01;101968.34;5212166;28;20463;-64
2022/03/04 12:00:11;;;;;;;;;;;;;;;10.66;62.51;101956.47;5229799;28;19930;-64
2022/03/04 12:02:42;;;;;;;;;;;;;;;10.85;59.25;101959.09;5210474;28;20380;-64
2022/03/04 12:05:29;;;;;;;;;;;;;;;11.04;59.29;101963.34;5211585;28;19912;-64
2022/03/04 12:08:00;;;;;;;;;;;;;;;11.16;59.52;101962.34;5211860;28;19939;-64
2022/03/04 12:10:32;;;;;;;;;;;;;;;11.14;59.85;101961.75;5211655;28;20396;-64
2022/03/04 12:13:07;;;;;;;;;;;;;;;11.25;60.69;101954.72;5211640;28;19978;-63
2022/03/04 12:15:39;;;;;;;;;;;;;;;11.39;58.95;101949.88;5211355;28;19912;-64
2022/03/04 12:18:09;;;;;;;;;;;;;;;11.57;58.90;101946.22;5211671;28;19912;-64
2022/03/04 12:20:40;;;;;;;;;;;;;;;11.74;60.11;101948.00;5211232;28;20381;-64
2022/03/04 12:23:27;;;;;;;;;;;;;;;11.79;59.06;101934.63;5211428;28;20046;-63
2022/03/04 12:25:58;;;;;;;;;;;;;;;11.82;56.58;101949.56;5211400;28;19952;-63
2022/03/04 12:28:35;;;;;;;;;;;;;;;11.69;56.62;101939.75;5211688;28;20384;-64
2022/03/04 12:31:06;;;;;;;;;;;;;;;11.86;55.73;101936.34;5211533;28;20532;-64
2022/03/04 12:33:37;;;;;;;;;;;;;;;11.89;55.12;101931.28;5210944;28;20031;-64
2022/03/04 12:36:11;;;;;;;;;;;;;;;11.72;53.46;101927.66;5211369;28;19913;-64
2022/03/04 12:38:43;;;;;;;;;;;;;;;11.78;57.24;101926.75;5211451;28;19921;-63
2022/03/04 12:41:16;;;;;;;;;;;;;;;11.94;59.14;101931.41;5210271;28;19917;-63
2022/03/04 12:43:49;;;;;;;;;;;;;;;12.02;54.73;101927.50;5210637;28;19923;-64
2022/03/04 12:46:21;;;;;;;;;;;;;;;11.99;50.71;101927.97;5211157;28;19923;-63
2022/03/04 12:48:52;;;;;;;;;;;;;;;11.98;50.15;101921.75;5211211;28;20128;-63
2022/03/04 12:51:28;;;;;;;;;;;;;;;12.07;50.56;101920.31;5210990;28;19913;-64
2022/03/04 12:54:03;;;;;;;;;;;;;;;11.90;48.17;101919.41;5210925;28;20284;-63
2022/03/04 12:56:33;;;;;;;;;;;;;;;11.97;54.05;101920.09;5211018;28;20372;-64
2022/03/04 12:59:05;;;;;;;;;;;;;;;11.80;49.70;101917.31;5210999;28;19920;-64